createdAt,value
2023-02-02T07:37:54.454Z,18.34
2023-02-02T07:40:58.006Z,18.19
2023-02-02T07:44:01.754Z,18.14
2023-02-02T07:47:05.753Z,18.01
2023-02-02T07:50:11.163Z,18.09
2023-02-02T07:53:16.499Z,18.09
2023-02-02T07:56:23.019Z,18.02
2023-02-02T07:59:26.418Z,18.07
2023-02-02T08:02:29.577Z,18.09
2023-02-02T08:05:34.700Z,18.05
2023-02-02T08:08:39.635Z,18.00
2023-02-02T08:11:43.190Z,18.08
2023-02-02T08:14:46.399Z,17.97
2023-02-02T08:17:49.922Z,18.19
2023-02-02T08:20:53.266Z,18.07
2023-02-02T08:23:58.444Z,18.00
2023-02-02T08:27:01.752Z,17.99
2023-02-02T08:30:06.073Z,18.02
2023-02-02T08:33:09.403Z,18.14
2023-02-02T08:36:14.661Z,18.29
2023-02-02T08:39:19.208Z,18.38
2023-02-02T08:42:22.884Z,18.43
2023-02-02T08:46:02.074Z,18.29
2023-02-02T08:48:50.455Z,18.24
2023-02-02T08:51:53.759Z,18.35
2023-02-02T08:54:58.663Z,18.31
2023-02-02T08:58:01.855Z,18.27
2023-02-02T09:01:08.081Z,18.25
2023-02-02T09:04:17.032Z,18.16
2023-02-02T09:07:21.299Z,18.20
2023-02-02T09:10:26.140Z,18.21
2023-02-02T09:13:29.806Z,18.12
2023-02-02T09:16:36.067Z,18.15
2023-02-02T09:19:39.599Z,18.22
2023-02-02T09:22:43.043Z,18.33
2023-02-02T09:25:48.269Z,18.32
2023-02-02T09:28:56.114Z,18.46
2023-02-02T09:31:59.691Z,18.56
2023-02-02T09:35:03.253Z,18.57
2023-02-02T09:38:06.880Z,18.66
2023-02-02T09:42:10.751Z,18.75
2023-02-02T09:45:32.601Z,18.76
2023-02-02T09:48:52.966Z,18.78
2023-02-02T09:52:06.182Z,18.78
2023-02-02T09:55:19.393Z,18.88
2023-02-02T09:58:28.800Z,18.92
2023-02-02T10:01:39.854Z,18.88
2023-02-02T10:04:50.163Z,18.81
2023-02-02T10:08:03.179Z,18.76
2023-02-02T10:11:28.871Z,18.76
2023-02-02T10:14:42.439Z,18.85
2023-02-02T10:17:56.567Z,18.81
2023-02-02T10:21:04.458Z,18.85
2023-02-02T10:24:18.984Z,18.86
2023-02-02T10:27:37.917Z,18.91
2023-02-02T10:30:47.761Z,18.91
2023-02-02T10:34:07.755Z,18.88
2023-02-02T10:37:28.952Z,18.98
2023-02-02T10:40:55.528Z,18.99
2023-02-02T10:44:17.421Z,19.05
2023-02-02T10:47:28.685Z,18.95
2023-02-02T10:50:33.703Z,18.95
2023-02-02T10:53:37.487Z,19.00
2023-02-02T10:56:52.639Z,18.99
2023-02-02T11:00:06.495Z,18.93
2023-02-02T11:03:12.924Z,19.02
2023-02-02T11:06:35.635Z,18.93
2023-02-02T11:09:43.615Z,18.77
2023-02-02T11:12:53.113Z,18.63
2023-02-02T11:16:43.272Z,18.58
2023-02-02T11:19:47.985Z,18.60
2023-02-02T11:23:03.054Z,18.56
2023-02-02T11:26:07.471Z,18.56
2023-02-02T11:29:20.572Z,18.56
2023-02-02T11:32:32.491Z,18.55
2023-02-02T11:35:53.109Z,18.55
2023-02-02T11:39:17.256Z,18.49
2023-02-02T11:42:24.837Z,18.58
2023-02-02T11:45:37.281Z,18.55
2023-02-02T11:48:50.931Z,18.50
2023-02-02T11:52:01.007Z,18.33
2023-02-02T11:55:26.136Z,18.28
2023-02-02T11:58:43.376Z,18.28
2023-02-02T12:01:46.687Z,18.25
2023-02-02T12:04:53.699Z,18.20
2023-02-02T12:07:56.947Z,18.21
2023-02-02T12:11:07.221Z,18.22
2023-02-02T12:14:32.436Z,18.24
2023-02-02T12:17:43.054Z,18.21
2023-02-02T12:20:59.820Z,18.23
2023-02-02T12:24:31.317Z,18.37
2023-02-02T12:27:50.390Z,18.32
2023-02-02T12:31:07.905Z,18.36
2023-02-02T12:34:31.073Z,18.26
2023-02-02T12:37:54.531Z,17.97
2023-02-02T12:41:23.143Z,17.95
2023-02-02T12:44:39.775Z,18.05
2023-02-02T12:48:02.066Z,18.16
2023-02-02T12:51:29.381Z,18.23
2023-02-02T12:55:03.007Z,18.36
2023-02-02T12:58:20.062Z,18.32
2023-02-02T13:01:44.357Z,18.32
2023-02-02T13:05:10.400Z,18.33
2023-02-02T13:08:22.543Z,18.37
2023-02-02T13:11:42.034Z,18.40
2023-02-02T13:14:51.644Z,18.46
2023-02-02T13:18:00.187Z,18.42
2023-02-02T13:21:08.553Z,18.51
2023-02-02T13:24:26.333Z,18.55
2023-02-02T13:27:32.542Z,18.57
2023-02-02T13:30:40.456Z,18.60
2023-02-02T13:33:51.225Z,18.65
2023-02-02T13:37:03.019Z,18.67
2023-02-02T13:40:25.811Z,18.66
2023-02-02T13:43:44.081Z,18.70
2023-02-02T13:46:59.698Z,18.58
2023-02-02T13:50:14.688Z,18.66
2023-02-02T13:53:48.263Z,18.66
2023-02-02T13:57:06.171Z,18.66
2023-02-02T14:00:19.388Z,18.63
2023-02-02T14:03:38.714Z,18.60
2023-02-02T14:06:59.101Z,18.60
2023-02-02T14:10:04.393Z,18.61
2023-02-02T14:13:39.541Z,18.66
2023-02-02T14:16:53.373Z,18.63
2023-02-02T14:19:58.205Z,18.73
2023-02-02T14:23:03.120Z,18.75
2023-02-02T14:26:09.652Z,18.81
2023-02-02T14:29:58.432Z,18.71
2023-02-02T14:33:39.171Z,18.70
2023-02-02T14:37:00.607Z,18.63
2023-02-02T14:40:29.105Z,18.63
2023-02-02T14:43:49.560Z,18.58
2023-02-02T14:46:54.373Z,18.54
2023-02-02T14:49:59.516Z,18.59
2023-02-02T14:53:18.715Z,18.62
2023-02-02T14:56:46.896Z,18.61
2023-02-02T14:59:55.145Z,18.62
2023-02-02T15:03:38.893Z,18.65
2023-02-02T15:06:43.609Z,18.64
2023-02-02T15:09:46.832Z,15.63
2023-02-02T15:13:08.576Z,17.68
2023-02-02T15:16:28.625Z,18.12
2023-02-02T15:19:40.970Z,18.27
2023-02-02T15:22:52.303Z,18.32
2023-02-02T15:26:04.639Z,18.36
2023-02-02T15:29:22.203Z,18.44
2023-02-02T15:32:28.447Z,18.48
2023-02-02T15:35:36.618Z,18.55
2023-02-02T15:38:44.335Z,18.86
2023-02-02T15:42:10.841Z,18.90
2023-02-02T15:45:39.823Z,18.88
2023-02-02T15:48:43.953Z,18.63
2023-02-02T15:51:50.870Z,18.56
2023-02-02T15:54:57.317Z,18.54
2023-02-02T15:58:01.402Z,18.42
2023-02-02T16:01:16.709Z,18.39
2023-02-02T16:04:31.231Z,18.15
2023-02-02T16:07:35.044Z,18.09
2023-02-02T16:10:38.840Z,18.23
2023-02-02T16:13:54.913Z,17.97
2023-02-02T16:17:13.617Z,17.87
2023-02-02T16:20:19.283Z,17.70
2023-02-02T16:23:31.525Z,17.58
2023-02-02T16:26:37.103Z,17.52
2023-02-02T16:29:41.814Z,17.49
2023-02-02T16:32:46.593Z,17.42
2023-02-02T16:35:50.073Z,17.32
2023-02-02T16:38:55.976Z,17.32
2023-02-02T16:42:11.375Z,17.26
2023-02-02T16:45:35.999Z,17.24
2023-02-02T16:48:45.135Z,17.21
2023-02-02T16:52:07.850Z,17.13
2023-02-02T16:55:11.747Z,17.06
2023-02-02T16:58:19.685Z,17.06
2023-02-02T17:01:23.265Z,17.01
2023-02-02T17:04:32.626Z,16.97
2023-02-02T17:07:39.798Z,16.96
2023-02-02T17:10:44.973Z,16.97
2023-02-02T17:13:48.461Z,16.96
2023-02-02T17:16:52.151Z,16.97
2023-02-02T17:19:57.482Z,16.93
2023-02-02T17:23:05.021Z,16.93
2023-02-02T17:26:10.219Z,16.92
2023-02-02T17:29:17.105Z,16.84
2023-02-02T17:32:20.876Z,16.92
2023-02-02T17:35:37.111Z,16.89
2023-02-02T17:38:47.434Z,16.89
2023-02-02T17:41:51.482Z,16.87
2023-02-02T17:44:55.352Z,16.88
2023-02-02T17:47:59.850Z,16.96
2023-02-02T17:51:07.105Z,16.89
2023-02-02T17:54:13.414Z,16.91
2023-02-02T17:57:17.041Z,17.00
2023-02-02T18:00:24.153Z,16.90
2023-02-02T18:03:34.300Z,16.99
2023-02-02T18:06:40.069Z,16.98
2023-02-02T18:09:43.730Z,16.98
2023-02-02T18:12:47.286Z,16.97
2023-02-02T18:15:53.062Z,16.92
2023-02-02T18:18:57.562Z,16.88
2023-02-02T18:22:02.464Z,16.86
2023-02-02T18:25:06.690Z,16.84
2023-02-02T18:28:11.471Z,16.85
2023-02-02T18:31:19.396Z,16.83
2023-02-02T18:34:22.953Z,16.81
2023-02-02T18:37:27.851Z,16.84
2023-02-02T18:40:31.361Z,16.82
2023-02-02T18:43:35.077Z,16.93
2023-02-02T18:46:38.793Z,16.83
2023-02-02T18:49:42.249Z,16.85
2023-02-02T18:52:47.091Z,16.92
2023-02-02T18:55:50.774Z,16.94
2023-02-02T18:58:54.767Z,16.93
2023-02-02T19:01:58.382Z,16.98
2023-02-02T19:05:19.428Z,17.02
2023-02-02T19:08:25.333Z,17.02
2023-02-02T19:11:40.249Z,17.09
2023-02-02T19:14:43.797Z,17.20
2023-02-02T19:17:50.480Z,17.19
2023-02-02T19:20:54.636Z,17.21
2023-02-02T19:24:00.847Z,17.27
2023-02-02T19:27:12.594Z,17.20
2023-02-02T19:30:23.807Z,17.15
2023-02-02T19:33:39.267Z,17.21
2023-02-02T19:36:46.787Z,17.20
2023-02-02T19:39:52.190Z,17.23
2023-02-02T19:43:18.896Z,17.23
2023-02-02T19:46:27.037Z,17.21
2023-02-02T19:49:35.173Z,17.25
2023-02-02T19:52:39.708Z,17.27
2023-02-02T19:55:48.904Z,17.27
2023-02-02T19:58:53.724Z,17.41
2023-02-02T20:01:57.401Z,17.50
2023-02-02T20:05:07.524Z,17.32
2023-02-02T20:08:24.436Z,17.18
2023-02-02T20:11:36.084Z,17.23
2023-02-02T20:14:39.886Z,17.26
2023-02-02T20:17:43.145Z,17.36
2023-02-02T20:20:53.810Z,17.31
2023-02-02T20:23:58.187Z,17.38
2023-02-02T20:27:26.456Z,17.32
2023-02-02T20:30:31.916Z,17.38
2023-02-02T20:33:49.501Z,17.38
2023-02-02T20:36:54.936Z,17.33
2023-02-02T20:40:01.209Z,17.32
2023-02-02T20:43:06.171Z,17.33
2023-02-02T20:46:09.870Z,17.30
2023-02-02T20:49:13.349Z,17.22
2023-02-02T20:52:23.755Z,17.19
2023-02-02T20:55:28.319Z,17.16
2023-02-02T20:58:33.292Z,17.14
2023-02-02T21:01:36.798Z,17.15
2023-02-02T21:04:46.515Z,17.12
2023-02-02T21:07:54.780Z,17.09
2023-02-02T21:10:58.535Z,17.05
2023-02-02T21:14:03.326Z,16.99
2023-02-02T21:17:14.734Z,17.01
2023-02-02T21:20:19.941Z,16.99
2023-02-02T21:23:23.412Z,17.02
2023-02-02T21:26:30.375Z,16.99
2023-02-02T21:29:36.102Z,16.94
2023-02-02T21:32:39.711Z,16.87
2023-02-02T21:35:43.188Z,16.87
2023-02-02T21:38:47.022Z,16.86
2023-02-02T21:41:55.102Z,16.81
2023-02-02T21:45:26.598Z,16.84
2023-02-02T21:48:38.715Z,16.76
2023-02-02T21:51:43.243Z,16.76
2023-02-02T21:54:47.520Z,16.78
2023-02-02T21:57:50.703Z,16.80
2023-02-02T22:01:03.785Z,16.76
2023-02-02T22:04:17.334Z,16.76
2023-02-02T22:07:20.946Z,16.80
2023-02-02T22:10:36.432Z,16.72
2023-02-02T22:13:39.887Z,16.68
2023-02-02T22:16:48.885Z,16.69
2023-02-02T22:19:59.895Z,16.82
2023-02-02T22:23:04.522Z,16.87
2023-02-02T22:26:32.313Z,16.83
2023-02-02T22:29:36.468Z,16.76
2023-02-02T22:32:41.292Z,16.70
2023-02-02T22:35:46.426Z,16.72
2023-02-02T22:38:49.872Z,16.63
2023-02-02T22:41:53.379Z,16.60
2023-02-02T22:44:56.828Z,16.73
2023-02-02T22:48:01.568Z,16.75
2023-02-02T22:51:05.250Z,16.70
2023-02-02T22:54:08.759Z,16.73
2023-02-02T22:57:12.353Z,16.63
2023-02-02T23:00:19.150Z,16.67
2023-02-02T23:03:24.189Z,16.62
2023-02-02T23:06:27.636Z,16.67
2023-02-02T23:09:31.214Z,16.71
2023-02-02T23:12:35.265Z,16.66
2023-02-02T23:15:38.862Z,16.67
2023-02-02T23:18:44.147Z,16.63
2023-02-02T23:21:47.615Z,16.63
2023-02-02T23:24:50.968Z,16.61
2023-02-02T23:27:54.520Z,16.63
2023-02-02T23:30:59.257Z,16.63
2023-02-02T23:34:04.463Z,16.57
2023-02-02T23:37:07.658Z,16.57
2023-02-02T23:40:13.506Z,16.54
2023-02-02T23:43:16.896Z,16.55
2023-02-02T23:46:20.642Z,16.53
2023-02-02T23:49:26.127Z,16.56
2023-02-02T23:52:29.769Z,16.50
2023-02-02T23:55:33.824Z,16.49
2023-02-02T23:58:37.588Z,16.47
